createdAt,value
2024-04-30T00:01:34.044Z,41.27
2024-04-30T00:04:00.924Z,42.13
2024-04-30T00:06:32.863Z,40.48
2024-04-30T00:08:59.490Z,42.02
2024-04-30T00:11:28.753Z,41.37
2024-04-30T00:13:55.448Z,40.64
2024-04-30T00:16:24.749Z,41.07
2024-04-30T00:18:51.392Z,42.19
2024-04-30T00:21:20.622Z,42.18
2024-04-30T00:23:49.866Z,42.64
2024-04-30T00:26:19.099Z,41.80
2024-04-30T00:28:46.947Z,40.74
2024-04-30T00:31:16.201Z,41.27
2024-04-30T00:33:42.837Z,41.55
2024-04-30T00:36:12.102Z,41.53
2024-04-30T00:38:38.728Z,40.91
2024-04-30T00:41:10.504Z,41.63
2024-04-30T00:43:37.355Z,42.54
2024-04-30T00:46:07.169Z,43.07
2024-04-30T00:48:36.441Z,42.18
2024-04-30T00:51:09.361Z,41.75
2024-04-30T00:53:36.105Z,41.06
2024-04-30T00:56:05.609Z,41.57
2024-04-30T00:58:36.157Z,41.23
2024-04-30T01:01:06.625Z,41.17
2024-04-30T01:03:33.638Z,43.00
2024-04-30T01:06:03.014Z,40.44
2024-04-30T01:08:29.678Z,41.77
2024-04-30T01:11:00.191Z,41.31
2024-04-30T01:13:28.802Z,41.99
2024-04-30T01:16:00.700Z,42.58
2024-04-30T01:18:27.381Z,41.89
2024-04-30T01:20:56.638Z,41.40
2024-04-30T01:23:25.897Z,40.76
2024-04-30T01:25:55.246Z,43.29
2024-04-30T01:28:21.965Z,41.69
2024-04-30T01:30:51.396Z,42.09
2024-04-30T01:33:18.616Z,42.47
2024-04-30T01:35:47.812Z,42.42
2024-04-30T01:38:14.621Z,41.22
2024-04-30T01:40:46.437Z,41.83
2024-04-30T01:43:13.114Z,42.22
2024-04-30T01:45:42.368Z,42.86
2024-04-30T01:48:09.077Z,41.69
2024-04-30T01:50:39.181Z,42.48
2024-04-30T01:53:05.831Z,44.29
2024-04-30T01:55:35.093Z,43.00
2024-04-30T01:58:04.738Z,43.40
2024-04-30T02:00:34.085Z,45.56
2024-04-30T02:03:00.734Z,44.45
2024-04-30T02:05:30.045Z,43.78
2024-04-30T02:07:56.768Z,43.54
2024-04-30T02:10:26.061Z,42.83
2024-04-30T02:12:52.700Z,44.78
2024-04-30T02:15:24.511Z,44.45
2024-04-30T02:17:51.585Z,43.39
2024-04-30T02:20:20.803Z,44.40
2024-04-30T02:22:47.456Z,43.97
2024-04-30T02:25:16.768Z,43.05
2024-04-30T02:27:43.487Z,45.27
2024-04-30T02:30:33.471Z,43.68
2024-04-30T02:33:21.212Z,43.82
2024-04-30T02:35:50.500Z,44.28
2024-04-30T02:38:19.705Z,42.84
2024-04-30T02:40:48.928Z,43.70
2024-04-30T02:43:18.201Z,43.20
2024-04-30T02:45:44.857Z,43.18
2024-04-30T02:48:17.559Z,42.78
2024-04-30T02:50:44.219Z,43.62
2024-04-30T02:53:13.475Z,45.34
2024-04-30T02:55:40.160Z,42.56
2024-04-30T02:58:09.382Z,43.99
2024-04-30T03:00:38.608Z,44.48
2024-04-30T03:03:05.506Z,44.45
2024-04-30T03:05:37.341Z,44.58
2024-04-30T03:08:05.374Z,45.10
2024-04-30T03:10:35.028Z,44.96
2024-04-30T03:13:01.847Z,44.59
2024-04-30T03:15:31.086Z,44.67
2024-04-30T03:17:57.919Z,44.72
2024-04-30T03:20:27.530Z,43.89
2024-04-30T03:22:56.764Z,42.48
2024-04-30T03:25:26.007Z,43.28
2024-04-30T03:27:52.719Z,44.07
2024-04-30T03:30:22.144Z,43.64
2024-04-30T03:32:49.065Z,41.66
2024-04-30T03:35:18.946Z,43.59
2024-04-30T03:37:48.203Z,43.75
2024-04-30T03:40:20.041Z,43.76
2024-04-30T03:42:52.284Z,43.50
2024-04-30T03:45:22.982Z,44.06
2024-04-30T03:47:52.235Z,41.76
2024-04-30T03:50:21.473Z,41.18
2024-04-30T03:52:48.098Z,42.51
2024-04-30T03:55:19.962Z,42.73
2024-04-30T03:57:46.582Z,43.71
2024-04-30T04:00:16.402Z,43.72
2024-04-30T04:02:43.163Z,44.16
2024-04-30T04:05:12.427Z,43.02
2024-04-30T04:07:39.096Z,42.49
2024-04-30T04:10:09.160Z,42.14
2024-04-30T04:12:57.039Z,42.64
2024-04-30T04:15:26.232Z,44.63
2024-04-30T04:17:55.521Z,44.91
2024-04-30T04:20:24.759Z,42.24
2024-04-30T04:22:53.983Z,42.45
2024-04-30T04:25:23.190Z,41.37
2024-04-30T04:27:52.464Z,40.39
2024-04-30T04:30:21.638Z,42.60
2024-04-30T04:32:48.391Z,40.98
2024-04-30T04:35:17.927Z,41.76
2024-04-30T04:37:45.834Z,42.14
2024-04-30T04:40:15.207Z,43.04
2024-04-30T04:42:41.855Z,43.46
2024-04-30T04:45:13.657Z,42.54
2024-04-30T04:47:40.386Z,43.22
2024-04-30T04:50:10.740Z,41.66
2024-04-30T04:52:38.585Z,41.03
2024-04-30T04:55:08.336Z,39.58
2024-04-30T04:57:35.016Z,40.32
2024-04-30T05:00:05.551Z,40.65
2024-04-30T05:02:34.802Z,40.39
2024-04-30T05:05:04.108Z,40.90
2024-04-30T05:07:31.055Z,41.50
2024-04-30T05:10:00.425Z,41.32
2024-04-30T05:12:27.076Z,42.52
2024-04-30T05:14:56.394Z,42.01
2024-04-30T05:17:23.174Z,40.11
2024-04-30T05:19:55.049Z,40.85
2024-04-30T05:22:21.776Z,41.43
2024-04-30T05:24:51.094Z,41.04
2024-04-30T05:27:17.784Z,39.95
2024-04-30T05:29:47.085Z,40.71
2024-04-30T05:32:13.748Z,40.64
2024-04-30T05:34:42.993Z,43.74
2024-04-30T05:37:12.362Z,41.42
2024-04-30T05:39:41.595Z,42.38
2024-04-30T05:42:09.170Z,42.06
2024-04-30T05:44:38.392Z,41.94
2024-04-30T05:47:05.156Z,41.58
2024-04-30T05:49:34.717Z,41.41
2024-04-30T05:52:01.656Z,43.22
2024-04-30T05:54:33.441Z,43.32
2024-04-30T05:57:00.132Z,43.30
2024-04-30T05:59:29.796Z,41.91
2024-04-30T06:01:56.520Z,41.79
2024-04-30T06:04:25.934Z,43.92
2024-04-30T06:06:52.621Z,42.39
2024-04-30T06:09:21.842Z,42.99
2024-04-30T06:11:52.859Z,43.01
2024-04-30T06:14:23.962Z,42.00
2024-04-30T06:16:51.855Z,42.60
2024-04-30T06:19:21.105Z,42.31
2024-04-30T06:21:47.965Z,42.12
2024-04-30T06:24:17.230Z,41.09
2024-04-30T06:26:44.287Z,40.99
2024-04-30T06:29:17.102Z,40.54
2024-04-30T06:31:43.844Z,40.65
2024-04-30T06:34:14.432Z,41.54
2024-04-30T06:36:41.105Z,40.70
2024-04-30T06:39:10.348Z,41.35
2024-04-30T06:41:37.005Z,40.91
2024-04-30T06:44:06.253Z,41.26
2024-04-30T06:46:35.591Z,39.04
2024-04-30T06:49:05.821Z,39.76
2024-04-30T06:51:34.582Z,39.24
2024-04-30T06:54:03.822Z,40.48
2024-04-30T06:56:30.465Z,41.73
2024-04-30T06:58:59.648Z,40.85
2024-04-30T07:01:28.967Z,40.43
2024-04-30T07:03:58.225Z,40.33
2024-04-30T07:06:27.457Z,40.56
2024-04-30T07:08:54.080Z,41.48
2024-04-30T07:11:23.536Z,41.25
2024-04-30T07:13:50.212Z,39.69
2024-04-30T07:16:19.551Z,41.10
2024-04-30T07:18:46.789Z,39.43
2024-04-30T07:21:18.690Z,40.21
2024-04-30T07:23:45.358Z,40.55
2024-04-30T07:26:16.693Z,39.96
2024-04-30T07:28:44.954Z,39.97
2024-04-30T07:31:14.176Z,38.63
2024-04-30T07:33:42.777Z,39.45
2024-04-30T07:36:12.134Z,38.24
2024-04-30T07:38:41.367Z,38.57
2024-04-30T07:41:10.850Z,38.61
2024-04-30T07:43:37.751Z,39.30
2024-04-30T07:46:07.539Z,38.67
2024-04-30T07:48:34.316Z,37.78
2024-04-30T07:51:03.666Z,36.97
2024-04-30T07:53:30.325Z,36.18
2024-04-30T07:56:02.136Z,35.46
2024-04-30T07:58:28.894Z,36.65
2024-04-30T08:00:58.136Z,36.96
2024-04-30T08:03:24.800Z,35.50
2024-04-30T08:05:56.329Z,35.72
2024-04-30T08:08:24.981Z,36.21
2024-04-30T08:10:54.882Z,36.79
2024-04-30T08:13:24.147Z,36.07
2024-04-30T08:15:53.376Z,37.28
2024-04-30T08:18:20.060Z,35.38
2024-04-30T08:20:49.297Z,35.23
2024-04-30T08:23:15.953Z,35.25
2024-04-30T08:25:45.218Z,35.15
2024-04-30T08:28:11.956Z,34.58
2024-04-30T08:30:44.387Z,34.83
2024-04-30T08:33:11.598Z,34.59
2024-04-30T08:35:42.304Z,34.77
2024-04-30T08:38:09.207Z,36.20
2024-04-30T08:40:38.806Z,36.71
2024-04-30T08:43:05.671Z,36.27
2024-04-30T08:45:36.985Z,35.88
2024-04-30T08:48:07.846Z,36.43
2024-04-30T08:50:41.377Z,35.93
2024-04-30T08:53:09.971Z,35.34
2024-04-30T08:55:40.436Z,35.91
2024-04-30T08:58:07.231Z,35.31
2024-04-30T09:00:37.387Z,36.55
2024-04-30T09:03:07.463Z,36.18
2024-04-30T09:05:37.097Z,35.71
2024-04-30T09:08:04.841Z,36.42
2024-04-30T09:10:35.989Z,36.18
2024-04-30T09:13:05.342Z,35.17
2024-04-30T09:15:32.018Z,35.28
2024-04-30T09:18:11.266Z,34.30
2024-04-30T09:20:44.458Z,34.00
2024-04-30T09:23:13.661Z,34.21
2024-04-30T09:25:43.011Z,34.06
2024-04-30T09:28:13.446Z,34.70
2024-04-30T09:30:42.716Z,35.22
2024-04-30T09:33:12.443Z,35.16
2024-04-30T09:35:42.175Z,35.28
2024-04-30T09:38:11.602Z,34.79
2024-04-30T09:40:41.002Z,35.54
2024-04-30T09:43:08.122Z,35.09
2024-04-30T09:45:37.422Z,36.39
2024-04-30T09:48:09.499Z,35.91
2024-04-30T09:50:43.520Z,35.59
2024-04-30T09:53:11.929Z,34.85
2024-04-30T09:55:41.167Z,33.58
2024-04-30T09:58:10.284Z,35.32
2024-04-30T10:00:39.493Z,34.15
2024-04-30T10:03:09.346Z,34.42
2024-04-30T10:05:45.870Z,34.36
2024-04-30T10:08:15.259Z,34.46
2024-04-30T10:10:45.845Z,33.59
2024-04-30T10:13:19.318Z,33.16
2024-04-30T10:15:46.049Z,33.25
2024-04-30T10:18:23.928Z,32.48
2024-04-30T10:20:53.451Z,32.76
2024-04-30T10:23:30.371Z,33.40
2024-04-30T10:26:04.400Z,32.75
2024-04-30T10:28:33.845Z,31.64
2024-04-30T10:31:10.941Z,31.19
2024-04-30T10:33:40.949Z,30.71
2024-04-30T10:36:12.260Z,31.55
2024-04-30T10:38:42.957Z,31.28
2024-04-30T10:41:10.592Z,32.19
2024-04-30T10:43:40.078Z,31.64
2024-04-30T10:46:12.495Z,31.56
2024-04-30T10:48:49.603Z,31.17
2024-04-30T10:51:20.872Z,30.82
2024-04-30T10:53:51.725Z,30.60
2024-04-30T10:56:18.938Z,30.10
2024-04-30T10:58:55.365Z,30.25
2024-04-30T11:01:23.272Z,30.97
2024-04-30T11:03:53.362Z,30.31
2024-04-30T11:06:25.204Z,31.37
2024-04-30T11:08:51.915Z,29.92
2024-04-30T11:11:43.137Z,30.16
2024-04-30T11:14:09.809Z,30.42
2024-04-30T11:16:39.711Z,30.29
2024-04-30T11:19:06.449Z,30.60
2024-04-30T11:21:38.337Z,30.68
2024-04-30T11:24:06.148Z,30.05
2024-04-30T11:26:35.364Z,30.59
2024-04-30T11:29:15.924Z,30.09
2024-04-30T11:31:51.415Z,29.81
2024-04-30T11:34:18.106Z,30.38
2024-04-30T11:36:50.036Z,30.94
2024-04-30T11:39:16.882Z,30.48
2024-04-30T11:41:51.923Z,30.22
2024-04-30T11:44:23.881Z,30.25
2024-04-30T11:46:53.113Z,28.86
2024-04-30T11:49:19.869Z,30.17
2024-04-30T11:51:51.697Z,29.62
2024-04-30T11:54:18.362Z,30.19
2024-04-30T11:56:47.616Z,28.23
2024-04-30T11:59:14.300Z,28.19
2024-04-30T12:01:43.740Z,27.75
2024-04-30T12:04:10.446Z,28.68
2024-04-30T12:06:40.128Z,28.58
2024-04-30T12:09:09.408Z,29.08
2024-04-30T12:11:41.065Z,28.43
2024-04-30T12:14:07.725Z,28.56
2024-04-30T12:16:37.000Z,28.63
2024-04-30T12:19:05.117Z,28.60
2024-04-30T12:21:34.410Z,28.78
2024-04-30T12:24:01.121Z,27.82
2024-04-30T12:26:37.565Z,28.28
2024-04-30T12:29:04.374Z,26.91
2024-04-30T12:31:34.278Z,27.32
2024-04-30T12:34:00.963Z,26.94
2024-04-30T12:36:32.578Z,28.37
2024-04-30T12:39:02.000Z,27.97
2024-04-30T12:41:37.150Z,27.31
2024-04-30T12:44:06.568Z,26.28
2024-04-30T12:46:33.407Z,27.26
2024-04-30T12:49:02.946Z,26.82
2024-04-30T12:51:29.706Z,27.59
2024-04-30T12:53:59.607Z,27.46
2024-04-30T12:56:26.323Z,27.38
2024-04-30T12:58:58.173Z,27.66
2024-04-30T13:01:26.333Z,26.53
2024-04-30T13:03:55.930Z,26.85
2024-04-30T13:06:22.629Z,26.71
2024-04-30T13:08:52.051Z,26.75
2024-04-30T13:11:18.761Z,26.84
2024-04-30T13:13:48.019Z,26.79
2024-04-30T13:16:17.287Z,26.43
2024-04-30T13:18:46.628Z,26.17
2024-04-30T13:21:14.848Z,26.02
2024-04-30T13:23:44.253Z,26.79
2024-04-30T13:26:11.050Z,26.12
2024-04-30T13:28:40.323Z,26.38
2024-04-30T13:31:07.165Z,26.67
2024-04-30T13:33:39.787Z,27.16
2024-04-30T13:36:09.966Z,27.52
2024-04-30T13:38:39.181Z,27.15
2024-04-30T13:41:05.864Z,27.30
2024-04-30T13:43:39.389Z,26.95
2024-04-30T13:46:06.286Z,27.40
2024-04-30T13:48:35.618Z,26.98
2024-04-30T13:51:05.457Z,26.73
2024-04-30T13:53:34.771Z,26.72
2024-04-30T13:56:01.408Z,26.67
2024-04-30T13:58:30.740Z,26.66
2024-04-30T14:00:57.483Z,27.03
2024-04-30T14:03:26.786Z,26.88
2024-04-30T14:05:55.151Z,26.35
2024-04-30T14:08:27.658Z,26.99
2024-04-30T14:10:54.508Z,26.18
2024-04-30T14:13:23.850Z,26.18
2024-04-30T14:15:50.572Z,26.17
2024-04-30T14:18:19.811Z,25.89
2024-04-30T14:20:46.724Z,26.53
2024-04-30T14:23:15.960Z,26.21
2024-04-30T14:25:45.291Z,26.38
2024-04-30T14:28:14.650Z,26.17
2024-04-30T14:30:41.529Z,25.78
2024-04-30T14:33:10.837Z,26.30
2024-04-30T14:35:52.507Z,26.14
2024-04-30T14:38:21.796Z,26.31
2024-04-30T14:40:51.404Z,26.04
2024-04-30T14:43:20.691Z,26.02
2024-04-30T14:45:47.335Z,24.57
2024-04-30T14:48:17.187Z,24.73
2024-04-30T14:50:43.969Z,25.90
2024-04-30T14:53:13.170Z,26.14
2024-04-30T14:55:40.131Z,25.56
2024-04-30T14:58:11.990Z,26.14
2024-04-30T15:00:38.661Z,25.85
2024-04-30T15:03:08.441Z,25.31
2024-04-30T15:05:35.173Z,25.91
2024-04-30T15:08:04.414Z,26.44
2024-04-30T15:10:31.462Z,26.23
2024-04-30T15:13:00.838Z,26.13
2024-04-30T15:15:30.076Z,25.25
2024-04-30T15:17:59.445Z,26.44
2024-04-30T15:20:26.153Z,25.96
2024-04-30T15:22:55.771Z,25.53
2024-04-30T15:25:25.115Z,25.51
2024-04-30T15:27:51.845Z,26.21
2024-04-30T15:30:21.173Z,26.45
2024-04-30T15:32:51.703Z,26.36
2024-04-30T15:35:22.361Z,27.06
2024-04-30T15:37:49.093Z,26.35
2024-04-30T15:40:18.506Z,26.62
2024-04-30T15:42:45.267Z,25.42
2024-04-30T15:45:14.637Z,25.36
2024-04-30T15:47:42.848Z,25.89
2024-04-30T15:50:14.744Z,25.95
2024-04-30T15:52:41.516Z,27.13
2024-04-30T15:55:10.834Z,26.89
2024-04-30T15:57:37.749Z,26.16
2024-04-30T16:00:07.898Z,25.72
2024-04-30T16:02:34.919Z,26.97
2024-04-30T16:05:04.326Z,26.43
2024-04-30T16:07:34.063Z,26.86
2024-04-30T16:10:03.267Z,26.97
2024-04-30T16:12:30.424Z,27.30
2024-04-30T16:14:59.633Z,25.92
2024-04-30T16:17:26.630Z,27.31
2024-04-30T16:19:56.046Z,27.13
2024-04-30T16:22:22.949Z,26.72
2024-04-30T16:24:55.665Z,26.00
2024-04-30T16:27:22.528Z,26.93
2024-04-30T16:29:51.721Z,26.03
2024-04-30T16:32:18.857Z,27.00
2024-04-30T16:34:48.189Z,26.25
2024-04-30T16:37:14.836Z,26.57
2024-04-30T16:39:44.060Z,26.24
2024-04-30T16:42:15.881Z,27.25
2024-04-30T16:44:48.611Z,27.41
2024-04-30T16:47:19.540Z,26.72
2024-04-30T16:49:48.821Z,25.74
2024-04-30T16:52:15.445Z,26.76
2024-04-30T16:54:44.706Z,26.81
2024-04-30T16:57:14.028Z,26.39
2024-04-30T16:59:43.249Z,26.41
2024-04-30T17:02:12.136Z,25.34
2024-04-30T17:04:41.844Z,26.00
2024-04-30T17:07:08.513Z,25.10
2024-04-30T17:09:37.749Z,25.33
2024-04-30T17:12:07.720Z,25.68
2024-04-30T17:14:37.218Z,25.43
2024-04-30T17:17:07.334Z,25.03
2024-04-30T17:19:34.099Z,24.78
2024-04-30T17:22:03.380Z,26.77
2024-04-30T17:24:30.050Z,24.92
2024-04-30T17:26:59.690Z,25.81
2024-04-30T17:29:26.327Z,25.66
2024-04-30T17:31:58.433Z,26.00
2024-04-30T17:34:25.127Z,26.57
2024-04-30T17:36:54.408Z,26.73
2024-04-30T17:39:21.248Z,26.41
2024-04-30T17:41:50.593Z,26.07
2024-04-30T17:44:17.302Z,26.23
2024-04-30T17:46:46.533Z,26.67
2024-04-30T17:49:15.871Z,26.97
2024-04-30T17:51:45.629Z,26.82
2024-04-30T17:54:14.634Z,26.10
2024-04-30T17:56:43.824Z,26.32
2024-04-30T17:59:10.860Z,26.96
2024-04-30T18:01:40.220Z,25.88
2024-04-30T18:04:06.970Z,26.25
2024-04-30T18:06:38.828Z,26.47
2024-04-30T18:09:06.773Z,27.68
2024-04-30T18:11:36.673Z,28.07
2024-04-30T18:14:03.638Z,28.22
2024-04-30T18:16:33.140Z,28.69
2024-04-30T18:18:59.934Z,28.15
2024-04-30T18:21:35.111Z,27.52
2024-04-30T18:24:07.140Z,28.19
2024-04-30T18:26:41.526Z,27.07
2024-04-30T18:29:08.761Z,28.02
2024-04-30T18:31:38.321Z,28.37
2024-04-30T18:34:05.097Z,28.77
2024-04-30T18:36:39.572Z,28.04
2024-04-30T18:39:13.763Z,27.81
2024-04-30T18:41:43.140Z,28.02
2024-04-30T18:44:10.059Z,28.63
2024-04-30T18:46:39.317Z,27.63
2024-04-30T18:49:06.100Z,28.50
2024-04-30T18:51:41.750Z,28.21
2024-04-30T18:54:13.911Z,27.96
2024-04-30T18:56:40.534Z,28.06
2024-04-30T18:59:09.838Z,28.18
2024-04-30T19:01:36.852Z,28.12
2024-04-30T19:04:06.623Z,28.63
2024-04-30T19:06:33.401Z,28.55
2024-04-30T19:09:02.768Z,28.23
2024-04-30T19:11:34.614Z,29.92
2024-04-30T19:14:01.308Z,28.54
2024-04-30T19:16:30.562Z,28.49
2024-04-30T19:18:58.052Z,28.30
2024-04-30T19:21:27.320Z,28.77
2024-04-30T19:23:53.962Z,29.08
2024-04-30T19:26:23.130Z,28.62
2024-04-30T19:28:52.444Z,29.21
2024-04-30T19:31:23.208Z,29.00
2024-04-30T19:33:50.135Z,29.31
2024-04-30T19:36:20.847Z,29.59
2024-04-30T19:38:48.313Z,28.19
2024-04-30T19:41:18.154Z,30.08
2024-04-30T19:43:45.070Z,29.37
2024-04-30T19:46:20.925Z,30.10
2024-04-30T19:48:48.043Z,29.54
2024-04-30T19:51:20.998Z,29.90
2024-04-30T19:53:49.580Z,29.39
2024-04-30T19:56:20.312Z,29.56
2024-04-30T19:58:51.664Z,28.70
2024-04-30T20:01:28.950Z,29.74
2024-04-30T20:03:57.685Z,29.36
2024-04-30T20:06:27.551Z,30.65
2024-04-30T20:08:54.332Z,29.36
2024-04-30T20:11:26.018Z,29.57
2024-04-30T20:13:53.571Z,28.82
2024-04-30T20:16:26.977Z,28.56
2024-04-30T20:18:54.092Z,28.81
2024-04-30T20:21:25.393Z,28.39
2024-04-30T20:23:52.273Z,28.98
2024-04-30T20:26:21.488Z,29.09
2024-04-30T20:28:48.513Z,29.58
2024-04-30T20:31:17.985Z,30.90
2024-04-30T20:33:47.297Z,28.90
2024-04-30T20:36:19.856Z,29.23
2024-04-30T20:38:46.794Z,30.84
2024-04-30T20:41:17.123Z,30.37
2024-04-30T20:43:43.905Z,30.78
2024-04-30T20:46:13.204Z,30.57
2024-04-30T20:48:39.991Z,29.77
2024-04-30T20:51:11.884Z,29.22
2024-04-30T20:53:40.245Z,29.24
2024-04-30T20:56:10.406Z,28.95
2024-04-30T20:58:37.036Z,29.74
2024-04-30T21:01:06.548Z,30.20
2024-04-30T21:03:33.334Z,29.62
2024-04-30T21:06:03.142Z,31.18
2024-04-30T21:08:32.419Z,29.90
2024-04-30T21:11:01.782Z,30.04
2024-04-30T21:13:28.465Z,29.60
2024-04-30T21:15:57.840Z,29.52
2024-04-30T21:18:24.727Z,30.70
2024-04-30T21:20:53.999Z,30.74
2024-04-30T21:23:21.540Z,29.88
2024-04-30T21:25:53.346Z,30.46
2024-04-30T21:28:20.008Z,30.36
2024-04-30T21:30:51.639Z,30.74
2024-04-30T21:33:18.850Z,30.70
2024-04-30T21:35:48.626Z,30.30
2024-04-30T21:38:16.598Z,30.13
2024-04-30T21:40:45.966Z,30.05
2024-04-30T21:43:15.231Z,29.73
2024-04-30T21:45:44.503Z,29.34
2024-04-30T21:48:11.384Z,29.69
2024-04-30T21:50:40.634Z,30.71
2024-04-30T21:53:07.412Z,31.23
2024-04-30T21:55:36.659Z,31.08
2024-04-30T21:58:03.538Z,31.59
2024-04-30T22:00:35.637Z,31.71
2024-04-30T22:03:03.551Z,31.67
2024-04-30T22:05:33.924Z,31.63
2024-04-30T22:08:00.693Z,31.51
2024-04-30T22:10:29.897Z,30.87
2024-04-30T22:12:56.780Z,31.22
2024-04-30T22:15:26.162Z,30.80
2024-04-30T22:17:55.494Z,31.12
2024-04-30T22:20:24.805Z,31.29
2024-04-30T22:22:51.494Z,31.52
2024-04-30T22:25:20.738Z,31.35
2024-04-30T22:27:47.419Z,30.29
2024-04-30T22:30:20.065Z,31.31
2024-04-30T22:32:47.378Z,32.19
2024-04-30T22:35:19.394Z,31.74
2024-04-30T22:37:46.027Z,30.98
2024-04-30T22:40:15.414Z,31.29
2024-04-30T22:42:42.227Z,30.73
2024-04-30T22:45:11.507Z,32.46
2024-04-30T22:47:38.334Z,31.29
2024-04-30T22:50:07.865Z,31.10
2024-04-30T22:52:37.103Z,32.05
2024-04-30T22:55:06.896Z,31.02
2024-04-30T22:57:36.235Z,31.29
2024-04-30T23:00:03.963Z,30.14
2024-04-30T23:02:33.224Z,31.10
2024-04-30T23:05:00.212Z,33.07
2024-04-30T23:07:29.503Z,31.97
2024-04-30T23:09:58.711Z,31.47
2024-04-30T23:12:28.097Z,31.14
2024-04-30T23:14:54.948Z,31.60
2024-04-30T23:17:24.245Z,32.93
2024-04-30T23:19:50.956Z,32.23
2024-04-30T23:22:23.402Z,32.59
2024-04-30T23:24:50.077Z,32.36
2024-04-30T23:27:22.222Z,32.22
2024-04-30T23:29:48.954Z,32.68
2024-04-30T23:32:18.351Z,32.23
2024-04-30T23:34:44.977Z,31.92
2024-04-30T23:37:14.202Z,33.13
2024-04-30T23:39:40.923Z,32.58
2024-04-30T23:42:13.761Z,32.32
2024-04-30T23:44:46.221Z,32.37
2024-04-30T23:47:15.448Z,33.44
2024-04-30T23:49:42.233Z,33.57
2024-04-30T23:52:11.491Z,32.68
2024-04-30T23:54:38.322Z,32.43
2024-04-30T23:57:08.210Z,32.17
2024-04-30T23:59:34.897Z,32.20
